sensor_id;sensor_type;location;lat;lon;timestamp;temperature;humidity
9699;DHT22;10089;47.876;8.346;2023-12-29T00:01:33;5.00;99.90
9699;DHT22;10089;47.876;8.346;2023-12-29T00:03:59;5.00;99.90
9699;DHT22;10089;47.876;8.346;2023-12-29T00:06:24;5.00;99.90
9699;DHT22;10089;47.876;8.346;2023-12-29T00:08:50;5.00;99.90
9699;DHT22;10089;47.876;8.346;2023-12-29T00:11:19;5.00;99.90
9699;DHT22;10089;47.876;8.346;2023-12-29T00:13:45;5.00;99.90
9699;DHT22;10089;47.876;8.346;2023-12-29T00:16:12;4.90;99.90
9699;DHT22;10089;47.876;8.346;2023-12-29T00:18:38;5.00;99.90
9699;DHT22;10089;47.876;8.346;2023-12-29T00:21:05;5.00;99.90
9699;DHT22;10089;47.876;8.346;2023-12-29T00:23:30;4.90;99.90
9699;DHT22;10089;47.876;8.346;2023-12-29T00:25:56;4.90;99.90
9699;DHT22;10089;47.876;8.346;2023-12-29T00:28:21;5.00;99.90
9699;DHT22;10089;47.876;8.346;2023-12-29T00:30:47;5.10;99.90
9699;DHT22;10089;47.876;8.346;2023-12-29T00:33:13;5.10;99.90
9699;DHT22;10089;47.876;8.346;2023-12-29T00:35:38;5.20;61.60
9699;DHT22;10089;47.876;8.346;2023-12-29T00:38:07;5.40;1.00
9699;DHT22;10089;47.876;8.346;2023-12-29T00:40:33;5.50;1.00
9699;DHT22;10089;47.876;8.346;2023-12-29T00:43:00;5.40;1.00
9699;DHT22;10089;47.876;8.346;2023-12-29T00:45:26;5.50;1.00
9699;DHT22;10089;47.876;8.346;2023-12-29T00:47:54;5.60;1.00
9699;DHT22;10089;47.876;8.346;2023-12-29T00:50:20;5.60;1.00
9699;DHT22;10089;47.876;8.346;2023-12-29T00:52:46;5.70;1.00
9699;DHT22;10089;47.876;8.346;2023-12-29T00:55:11;5.60;1.00
9699;DHT22;10089;47.876;8.346;2023-12-29T00:57:37;5.70;1.00
9699;DHT22;10089;47.876;8.346;2023-12-29T01:00:03;5.80;1.00
9699;DHT22;10089;47.876;8.346;2023-12-29T01:02:28;5.80;1.00
9699;DHT22;10089;47.876;8.346;2023-12-29T01:04:54;5.90;1.00
9699;DHT22;10089;47.876;8.346;2023-12-29T01:07:19;6.00;1.00
9699;DHT22;10089;47.876;8.346;2023-12-29T01:09:45;6.00;1.00
9699;DHT22;10089;47.876;8.346;2023-12-29T01:12:11;5.90;1.00
9699;DHT22;10089;47.876;8.346;2023-12-29T01:14:36;6.00;1.00
9699;DHT22;10089;47.876;8.346;2023-12-29T01:17:02;6.00;1.00
9699;DHT22;10089;47.876;8.346;2023-12-29T01:19:28;5.90;1.00
9699;DHT22;10089;47.876;8.346;2023-12-29T01:21:53;5.90;1.00
9699;DHT22;10089;47.876;8.346;2023-12-29T01:24:19;5.90;1.00
9699;DHT22;10089;47.876;8.346;2023-12-29T01:26:44;5.80;1.00
9699;DHT22;10089;47.876;8.346;2023-12-29T01:29:10;5.90;1.00
9699;DHT22;10089;47.876;8.346;2023-12-29T01:31:35;5.90;1.00
9699;DHT22;10089;47.876;8.346;2023-12-29T01:34:02;5.90;1.00
9699;DHT22;10089;47.876;8.346;2023-12-29T01:36:28;5.90;1.00
9699;DHT22;10089;47.876;8.346;2023-12-29T01:38:54;5.80;1.00
9699;DHT22;10089;47.876;8.346;2023-12-29T01:41:20;5.90;1.00
9699;DHT22;10089;47.876;8.346;2023-12-29T01:46:40;6.00;1.00
9699;DHT22;10089;47.876;8.346;2023-12-29T01:49:06;6.10;1.00
9699;DHT22;10089;47.876;8.346;2023-12-29T01:51:34;6.20;1.00
9699;DHT22;10089;47.876;8.346;2023-12-29T01:53:59;6.20;1.00
9699;DHT22;10089;47.876;8.346;2023-12-29T01:56:26;6.30;1.00
9699;DHT22;10089;47.876;8.346;2023-12-29T01:58:51;6.20;1.00
9699;DHT22;10089;47.876;8.346;2023-12-29T02:01:18;6.20;1.00
9699;DHT22;10089;47.876;8.346;2023-12-29T02:03:44;6.30;1.00
9699;DHT22;10089;47.876;8.346;2023-12-29T02:06:10;6.30;1.00
9699;DHT22;10089;47.876;8.346;2023-12-29T02:08:37;6.20;1.00
9699;DHT22;10089;47.876;8.346;2023-12-29T02:11:03;6.30;1.00
9699;DHT22;10089;47.876;8.346;2023-12-29T02:13:29;6.30;1.00
9699;DHT22;10089;47.876;8.346;2023-12-29T02:15:58;6.30;1.00
9699;DHT22;10089;47.876;8.346;2023-12-29T02:18:27;6.20;1.00
9699;DHT22;10089;47.876;8.346;2023-12-29T02:20:55;6.20;1.00
9699;DHT22;10089;47.876;8.346;2023-12-29T02:23:21;6.20;1.00
9699;DHT22;10089;47.876;8.346;2023-12-29T02:25:46;6.30;1.00
9699;DHT22;10089;47.876;8.346;2023-12-29T02:28:23;6.20;1.00
9699;DHT22;10089;47.876;8.346;2023-12-29T02:31:01;6.30;1.00
9699;DHT22;10089;47.876;8.346;2023-12-29T02:33:33;6.20;1.00
9699;DHT22;10089;47.876;8.346;2023-12-29T02:36:03;6.20;1.00
9699;DHT22;10089;47.876;8.346;2023-12-29T02:38:29;6.30;1.00
9699;DHT22;10089;47.876;8.346;2023-12-29T02:40:56;6.20;1.00
9699;DHT22;10089;47.876;8.346;2023-12-29T02:43:23;6.20;1.00
9699;DHT22;10089;47.876;8.346;2023-12-29T02:45:49;6.10;1.00
9699;DHT22;10089;47.876;8.346;2023-12-29T02:48:16;6.10;1.00
9699;DHT22;10089;47.876;8.346;2023-12-29T02:50:42;6.00;1.00
9699;DHT22;10089;47.876;8.346;2023-12-29T02:53:08;6.10;1.00
9699;DHT22;10089;47.876;8.346;2023-12-29T02:55:34;6.20;1.00
9699;DHT22;10089;47.876;8.346;2023-12-29T02:57:59;6.20;1.00
9699;DHT22;10089;47.876;8.346;2023-12-29T03:00:25;6.20;1.00
9699;DHT22;10089;47.876;8.346;2023-12-29T03:02:50;6.20;1.00
9699;DHT22;10089;47.876;8.346;2023-12-29T03:05:16;6.20;1.00
9699;DHT22;10089;47.876;8.346;2023-12-29T03:07:41;6.20;1.00
9699;DHT22;10089;47.876;8.346;2023-12-29T03:10:07;6.20;1.00
9699;DHT22;10089;47.876;8.346;2023-12-29T03:12:34;6.20;1.00
9699;DHT22;10089;47.876;8.346;2023-12-29T03:15:00;6.20;1.00
9699;DHT22;10089;47.876;8.346;2023-12-29T03:17:27;6.10;15.90
9699;DHT22;10089;47.876;8.346;2023-12-29T03:19:53;6.20;33.50
9699;DHT22;10089;47.876;8.346;2023-12-29T03:22:20;6.10;54.20
9699;DHT22;10089;47.876;8.346;2023-12-29T03:24:48;6.20;96.30
9699;DHT22;10089;47.876;8.346;2023-12-29T03:27:13;6.20;97.00
9699;DHT22;10089;47.876;8.346;2023-12-29T03:29:39;6.20;99.90
9699;DHT22;10089;47.876;8.346;2023-12-29T03:32:04;6.10;99.90
9699;DHT22;10089;47.876;8.346;2023-12-29T03:34:33;6.10;99.90
9699;DHT22;10089;47.876;8.346;2023-12-29T03:37:01;6.10;99.90
9699;DHT22;10089;47.876;8.346;2023-12-29T03:39:26;6.10;99.90
9699;DHT22;10089;47.876;8.346;2023-12-29T03:41:52;6.10;99.90
9699;DHT22;10089;47.876;8.346;2023-12-29T03:44:17;6.10;99.90
9699;DHT22;10089;47.876;8.346;2023-12-29T03:46:43;6.00;99.90
9699;DHT22;10089;47.876;8.346;2023-12-29T03:49:09;6.00;99.90
9699;DHT22;10089;47.876;8.346;2023-12-29T03:51:35;6.00;99.90
9699;DHT22;10089;47.876;8.346;2023-12-29T03:54:00;6.00;99.90
9699;DHT22;10089;47.876;8.346;2023-12-29T03:56:26;6.00;99.90
9699;DHT22;10089;47.876;8.346;2023-12-29T03:58:52;6.00;99.90
9699;DHT22;10089;47.876;8.346;2023-12-29T04:01:18;6.00;99.90
9699;DHT22;10089;47.876;8.346;2023-12-29T04:03:45;6.00;99.90
9699;DHT22;10089;47.876;8.346;2023-12-29T04:06:11;6.10;99.90
9699;DHT22;10089;47.876;8.346;2023-12-29T04:08:37;6.00;99.90
9699;DHT22;10089;47.876;8.346;2023-12-29T04:11:04;6.00;99.90
9699;DHT22;10089;47.876;8.346;2023-12-29T04:13:30;6.00;99.90
9699;DHT22;10089;47.876;8.346;2023-12-29T04:15:56;6.00;99.90
9699;DHT22;10089;47.876;8.346;2023-12-29T04:18:23;6.00;99.90
9699;DHT22;10089;47.876;8.346;2023-12-29T04:20:49;5.90;99.90
9699;DHT22;10089;47.876;8.346;2023-12-29T04:23:15;5.90;99.90
9699;DHT22;10089;47.876;8.346;2023-12-29T04:25:41;5.90;99.90
9699;DHT22;10089;47.876;8.346;2023-12-29T04:28:07;5.90;99.90
9699;DHT22;10089;47.876;8.346;2023-12-29T04:30:33;6.20;99.90
9699;DHT22;10089;47.876;8.346;2023-12-29T04:33:00;5.90;99.90
9699;DHT22;10089;47.876;8.346;2023-12-29T04:35:27;5.80;99.90
9699;DHT22;10089;47.876;8.346;2023-12-29T04:37:52;5.80;99.90
9699;DHT22;10089;47.876;8.346;2023-12-29T04:40:18;5.80;99.90
9699;DHT22;10089;47.876;8.346;2023-12-29T04:42:44;5.80;99.90
9699;DHT22;10089;47.876;8.346;2023-12-29T04:45:11;5.80;99.90
9699;DHT22;10089;47.876;8.346;2023-12-29T04:47:38;5.80;99.90
9699;DHT22;10089;47.876;8.346;2023-12-29T04:50:04;5.80;99.90
9699;DHT22;10089;47.876;8.346;2023-12-29T04:52:31;5.80;99.90
9699;DHT22;10089;47.876;8.346;2023-12-29T04:54:57;5.80;99.90
9699;DHT22;10089;47.876;8.346;2023-12-29T04:57:23;5.90;99.90
9699;DHT22;10089;47.876;8.346;2023-12-29T04:59:49;5.80;99.90
9699;DHT22;10089;47.876;8.346;2023-12-29T05:02:15;5.90;99.90
9699;DHT22;10089;47.876;8.346;2023-12-29T05:04:40;5.90;99.90
9699;DHT22;10089;47.876;8.346;2023-12-29T05:07:09;5.90;99.90
9699;DHT22;10089;47.876;8.346;2023-12-29T05:09:35;6.00;99.90
9699;DHT22;10089;47.876;8.346;2023-12-29T05:12:00;6.10;99.90
9699;DHT22;10089;47.876;8.346;2023-12-29T05:14:26;6.10;99.90
9699;DHT22;10089;47.876;8.346;2023-12-29T05:16:52;6.20;99.90
9699;DHT22;10089;47.876;8.346;2023-12-29T05:19:17;6.20;99.90
9699;DHT22;10089;47.876;8.346;2023-12-29T05:21:44;6.10;99.90
9699;DHT22;10089;47.876;8.346;2023-12-29T05:24:10;6.20;99.90
9699;DHT22;10089;47.876;8.346;2023-12-29T05:26:35;6.20;99.90
9699;DHT22;10089;47.876;8.346;2023-12-29T05:29:02;6.20;99.90
9699;DHT22;10089;47.876;8.346;2023-12-29T05:31:28;6.30;99.90
9699;DHT22;10089;47.876;8.346;2023-12-29T05:33:53;6.40;99.90
9699;DHT22;10089;47.876;8.346;2023-12-29T05:36:20;6.50;99.90
9699;DHT22;10089;47.876;8.346;2023-12-29T05:38:46;6.50;99.90
9699;DHT22;10089;47.876;8.346;2023-12-29T05:41:15;6.50;99.90
9699;DHT22;10089;47.876;8.346;2023-12-29T05:43:41;6.40;99.90
9699;DHT22;10089;47.876;8.346;2023-12-29T05:46:10;6.40;99.90
9699;DHT22;10089;47.876;8.346;2023-12-29T05:48:39;6.40;99.90
9699;DHT22;10089;47.876;8.346;2023-12-29T05:51:12;6.40;99.90
9699;DHT22;10089;47.876;8.346;2023-12-29T05:53:40;6.30;99.90
9699;DHT22;10089;47.876;8.346;2023-12-29T05:56:06;6.30;99.90
9699;DHT22;10089;47.876;8.346;2023-12-29T05:58:32;6.30;99.90
9699;DHT22;10089;47.876;8.346;2023-12-29T06:00:58;6.40;99.90
9699;DHT22;10089;47.876;8.346;2023-12-29T06:03:27;6.00;99.90
9699;DHT22;10089;47.876;8.346;2023-12-29T06:05:53;5.70;99.90
9699;DHT22;10089;47.876;8.346;2023-12-29T06:08:18;5.60;99.90
9699;DHT22;10089;47.876;8.346;2023-12-29T06:10:44;5.40;99.90
9699;DHT22;10089;47.876;8.346;2023-12-29T06:13:09;5.40;99.90
9699;DHT22;10089;47.876;8.346;2023-12-29T06:15:35;5.30;99.90
9699;DHT22;10089;47.876;8.346;2023-12-29T06:18:02;5.30;99.90
9699;DHT22;10089;47.876;8.346;2023-12-29T06:20:28;5.30;99.90
9699;DHT22;10089;47.876;8.346;2023-12-29T06:22:55;5.30;99.90
9699;DHT22;10089;47.876;8.346;2023-12-29T06:25:20;5.30;99.90
9699;DHT22;10089;47.876;8.346;2023-12-29T06:27:46;5.20;99.90
9699;DHT22;10089;47.876;8.346;2023-12-29T06:30:12;5.20;99.90
9699;DHT22;10089;47.876;8.346;2023-12-29T06:32:41;5.20;99.90
9699;DHT22;10089;47.876;8.346;2023-12-29T06:35:07;5.20;99.90
9699;DHT22;10089;47.876;8.346;2023-12-29T06:37:33;5.20;99.90
9699;DHT22;10089;47.876;8.346;2023-12-29T06:39:59;5.20;99.90
9699;DHT22;10089;47.876;8.346;2023-12-29T06:42:24;5.10;99.90
9699;DHT22;10089;47.876;8.346;2023-12-29T06:44:50;5.10;99.90
9699;DHT22;10089;47.876;8.346;2023-12-29T06:47:16;5.20;99.90
9699;DHT22;10089;47.876;8.346;2023-12-29T06:49:41;5.10;99.90
9699;DHT22;10089;47.876;8.346;2023-12-29T06:52:07;5.20;99.90
9699;DHT22;10089;47.876;8.346;2023-12-29T06:54:34;5.20;99.90
9699;DHT22;10089;47.876;8.346;2023-12-29T06:57:00;5.20;99.90
9699;DHT22;10089;47.876;8.346;2023-12-29T06:59:27;5.20;99.90
9699;DHT22;10089;47.876;8.346;2023-12-29T07:01:52;5.20;99.90
9699;DHT22;10089;47.876;8.346;2023-12-29T07:04:18;5.20;99.90
9699;DHT22;10089;47.876;8.346;2023-12-29T07:06:44;5.20;99.90
9699;DHT22;10089;47.876;8.346;2023-12-29T07:09:09;5.20;99.90
9699;DHT22;10089;47.876;8.346;2023-12-29T07:11:36;5.20;99.90
9699;DHT22;10089;47.876;8.346;2023-12-29T07:14:20;5.10;99.90
9699;DHT22;10089;47.876;8.346;2023-12-29T07:16:47;5.90;99.90
9699;DHT22;10089;47.876;8.346;2023-12-29T07:19:13;5.10;99.90
9699;DHT22;10089;47.876;8.346;2023-12-29T07:21:38;5.10;99.90
9699;DHT22;10089;47.876;8.346;2023-12-29T07:24:04;5.20;99.90
9699;DHT22;10089;47.876;8.346;2023-12-29T07:26:32;5.10;99.90
9699;DHT22;10089;47.876;8.346;2023-12-29T07:28:58;5.10;99.90
9699;DHT22;10089;47.876;8.346;2023-12-29T07:31:24;5.10;99.90
9699;DHT22;10089;47.876;8.346;2023-12-29T07:33:51;5.10;99.90
9699;DHT22;10089;47.876;8.346;2023-12-29T07:36:17;5.10;99.90
9699;DHT22;10089;47.876;8.346;2023-12-29T07:38:42;5.10;99.90
9699;DHT22;10089;47.876;8.346;2023-12-29T07:41:08;5.10;99.90
9699;DHT22;10089;47.876;8.346;2023-12-29T07:43:35;5.20;99.90
9699;DHT22;10089;47.876;8.346;2023-12-29T07:46:04;5.30;99.90
9699;DHT22;10089;47.876;8.346;2023-12-29T07:48:29;5.40;99.90
9699;DHT22;10089;47.876;8.346;2023-12-29T07:50:56;6.50;99.90
9699;DHT22;10089;47.876;8.346;2023-12-29T07:53:24;5.70;99.90
9699;DHT22;10089;47.876;8.346;2023-12-29T07:55:50;5.90;99.90
9699;DHT22;10089;47.876;8.346;2023-12-29T07:58:18;5.90;99.90
9699;DHT22;10089;47.876;8.346;2023-12-29T08:00:43;6.10;99.90
9699;DHT22;10089;47.876;8.346;2023-12-29T08:03:09;6.10;99.90
9699;DHT22;10089;47.876;8.346;2023-12-29T08:05:34;6.20;99.90
9699;DHT22;10089;47.876;8.346;2023-12-29T08:08:00;6.20;99.90
9699;DHT22;10089;47.876;8.346;2023-12-29T08:10:25;6.20;99.90
9699;DHT22;10089;47.876;8.346;2023-12-29T08:12:51;6.20;99.90
9699;DHT22;10089;47.876;8.346;2023-12-29T08:15:19;6.20;99.90
9699;DHT22;10089;47.876;8.346;2023-12-29T08:17:45;7.10;99.90
9699;DHT22;10089;47.876;8.346;2023-12-29T08:20:11;6.30;99.90
9699;DHT22;10089;47.876;8.346;2023-12-29T08:22:36;6.30;99.90
9699;DHT22;10089;47.876;8.346;2023-12-29T08:25:03;6.30;99.90
9699;DHT22;10089;47.876;8.346;2023-12-29T08:27:29;6.30;99.90
9699;DHT22;10089;47.876;8.346;2023-12-29T08:29:54;6.40;99.90
9699;DHT22;10089;47.876;8.346;2023-12-29T08:32:20;6.30;99.90
9699;DHT22;10089;47.876;8.346;2023-12-29T08:34:47;6.30;99.90
9699;DHT22;10089;47.876;8.346;2023-12-29T08:37:12;6.30;99.90
9699;DHT22;10089;47.876;8.346;2023-12-29T08:39:41;6.40;99.90
9699;DHT22;10089;47.876;8.346;2023-12-29T08:42:06;6.40;99.90
9699;DHT22;10089;47.876;8.346;2023-12-29T08:44:32;6.30;99.90
9699;DHT22;10089;47.876;8.346;2023-12-29T08:46:58;6.40;99.90
9699;DHT22;10089;47.876;8.346;2023-12-29T08:49:23;6.40;99.90
9699;DHT22;10089;47.876;8.346;2023-12-29T08:51:49;6.40;99.90
9699;DHT22;10089;47.876;8.346;2023-12-29T08:54:14;6.40;99.90
9699;DHT22;10089;47.876;8.346;2023-12-29T08:56:40;6.40;99.90
9699;DHT22;10089;47.876;8.346;2023-12-29T08:59:06;6.50;99.90
9699;DHT22;10089;47.876;8.346;2023-12-29T09:01:32;6.50;99.90
9699;DHT22;10089;47.876;8.346;2023-12-29T09:03:58;6.50;99.90
9699;DHT22;10089;47.876;8.346;2023-12-29T09:06:24;6.50;99.90
9699;DHT22;10089;47.876;8.346;2023-12-29T09:08:50;6.60;99.90
9699;DHT22;10089;47.876;8.346;2023-12-29T09:11:15;6.60;99.90
9699;DHT22;10089;47.876;8.346;2023-12-29T09:13:42;6.60;99.90
9699;DHT22;10089;47.876;8.346;2023-12-29T09:16:08;6.60;99.90
9699;DHT22;10089;47.876;8.346;2023-12-29T09:18:34;6.70;99.90
9699;DHT22;10089;47.876;8.346;2023-12-29T09:21:00;6.70;67.70
9699;DHT22;10089;47.876;8.346;2023-12-29T09:23:25;6.70;99.90
9699;DHT22;10089;47.876;8.346;2023-12-29T09:25:52;6.80;31.00
9699;DHT22;10089;47.876;8.346;2023-12-29T09:28:17;6.80;1.00
9699;DHT22;10089;47.876;8.346;2023-12-29T09:30:43;6.90;24.10
9699;DHT22;10089;47.876;8.346;2023-12-29T09:33:09;6.90;3.30
9699;DHT22;10089;47.876;8.346;2023-12-29T09:35:38;7.00;56.30
9699;DHT22;10089;47.876;8.346;2023-12-29T09:38:04;7.20;4.20
9699;DHT22;10089;47.876;8.346;2023-12-29T09:40:30;7.20;1.00
9699;DHT22;10089;47.876;8.346;2023-12-29T09:42:55;7.20;1.00
9699;DHT22;10089;47.876;8.346;2023-12-29T09:45:24;7.30;1.00
9699;DHT22;10089;47.876;8.346;2023-12-29T09:47:51;7.20;1.00
9699;DHT22;10089;47.876;8.346;2023-12-29T09:50:17;7.20;1.00
9699;DHT22;10089;47.876;8.346;2023-12-29T09:52:44;7.30;1.00
9699;DHT22;10089;47.876;8.346;2023-12-29T09:55:12;7.30;8.70
9699;DHT22;10089;47.876;8.346;2023-12-29T09:57:38;7.20;40.90
9699;DHT22;10089;47.876;8.346;2023-12-29T10:00:05;7.20;95.10
9699;DHT22;10089;47.876;8.346;2023-12-29T10:02:31;7.10;99.90
9699;DHT22;10089;47.876;8.346;2023-12-29T10:05:01;7.10;99.90
9699;DHT22;10089;47.876;8.346;2023-12-29T10:07:27;7.20;99.90
9699;DHT22;10089;47.876;8.346;2023-12-29T10:09:57;7.10;99.90
9699;DHT22;10089;47.876;8.346;2023-12-29T10:12:25;7.10;99.90
9699;DHT22;10089;47.876;8.346;2023-12-29T10:21:28;7.10;99.90
9699;DHT22;10089;47.876;8.346;2023-12-29T10:24:19;7.10;99.90
9699;DHT22;10089;47.876;8.346;2023-12-29T10:26:46;7.10;99.90
9699;DHT22;10089;47.876;8.346;2023-12-29T10:29:12;7.20;99.90
9699;DHT22;10089;47.876;8.346;2023-12-29T10:31:38;7.20;99.90
9699;DHT22;10089;47.876;8.346;2023-12-29T10:34:26;7.20;99.90
9699;DHT22;10089;47.876;8.346;2023-12-29T10:36:56;7.50;99.90
9699;DHT22;10089;47.876;8.346;2023-12-29T10:39:22;7.20;99.90
9699;DHT22;10089;47.876;8.346;2023-12-29T10:41:49;7.20;99.90
9699;DHT22;10089;47.876;8.346;2023-12-29T10:44:18;7.20;99.90
9699;DHT22;10089;47.876;8.346;2023-12-29T10:46:43;6.50;99.90
9699;DHT22;10089;47.876;8.346;2023-12-29T10:49:10;7.30;99.90
9699;DHT22;10089;47.876;8.346;2023-12-29T10:51:36;7.40;93.70
9699;DHT22;10089;47.876;8.346;2023-12-29T10:54:04;7.00;89.70
9699;DHT22;10089;47.876;8.346;2023-12-29T10:56:30;7.90;4.50
9699;DHT22;10089;47.876;8.346;2023-12-29T10:59:06;8.10;1.00
9699;DHT22;10089;47.876;8.346;2023-12-29T11:01:35;8.20;1.00
9699;DHT22;10089;47.876;8.346;2023-12-29T11:04:07;8.50;1.00
9699;DHT22;10089;47.876;8.346;2023-12-29T11:06:43;8.70;1.00
9699;DHT22;10089;47.876;8.346;2023-12-29T11:09:12;8.60;1.00
9699;DHT22;10089;47.876;8.346;2023-12-29T11:11:37;8.30;99.90
9699;DHT22;10089;47.876;8.346;2023-12-29T11:14:03;8.40;99.90
9699;DHT22;10089;47.876;8.346;2023-12-29T11:16:30;8.40;14.10
9699;DHT22;10089;47.876;8.346;2023-12-29T11:18:58;8.40;99.90
9699;DHT22;10089;47.876;8.346;2023-12-29T11:21:26;8.30;99.90
9699;DHT22;10089;47.876;8.346;2023-12-29T11:23:52;8.30;1.00
9699;DHT22;10089;47.876;8.346;2023-12-29T11:26:18;8.30;1.00
9699;DHT22;10089;47.876;8.346;2023-12-29T11:28:46;8.20;1.00
9699;DHT22;10089;47.876;8.346;2023-12-29T11:31:16;8.20;1.00
9699;DHT22;10089;47.876;8.346;2023-12-29T11:33:50;8.30;54.90
9699;DHT22;10089;47.876;8.346;2023-12-29T11:36:28;8.30;11.70
9699;DHT22;10089;47.876;8.346;2023-12-29T11:41:54;8.20;31.50
9699;DHT22;10089;47.876;8.346;2023-12-29T11:44:26;8.20;34.30
9699;DHT22;10089;47.876;8.346;2023-12-29T11:46:52;8.30;1.00
9699;DHT22;10089;47.876;8.346;2023-12-29T11:49:19;8.30;1.00
9699;DHT22;10089;47.876;8.346;2023-12-29T11:51:47;8.40;1.00
9699;DHT22;10089;47.876;8.346;2023-12-29T11:54:26;8.30;1.00
9699;DHT22;10089;47.876;8.346;2023-12-29T11:56:55;8.30;1.00
9699;DHT22;10089;47.876;8.346;2023-12-29T11:59:23;8.30;1.00
9699;DHT22;10089;47.876;8.346;2023-12-29T12:01:57;8.30;1.00
9699;DHT22;10089;47.876;8.346;2023-12-29T12:04:42;8.30;1.00
9699;DHT22;10089;47.876;8.346;2023-12-29T12:12:48;8.40;1.00
9699;DHT22;10089;47.876;8.346;2023-12-29T12:17:55;10.10;99.90
9699;DHT22;10089;47.876;8.346;2023-12-29T12:20:22;8.50;28.00
9699;DHT22;10089;47.876;8.346;2023-12-29T12:22:58;8.60;99.90
9699;DHT22;10089;47.876;8.346;2023-12-29T12:25:26;8.70;99.90
9699;DHT22;10089;47.876;8.346;2023-12-29T12:27:53;8.90;51.70
9699;DHT22;10089;47.876;8.346;2023-12-29T12:30:19;9.00;1.00
9699;DHT22;10089;47.876;8.346;2023-12-29T12:32:45;8.90;99.90
9699;DHT22;10089;47.876;8.346;2023-12-29T12:35:15;8.90;1.00
9699;DHT22;10089;47.876;8.346;2023-12-29T12:37:43;8.70;1.00
9699;DHT22;10089;47.876;8.346;2023-12-29T12:40:09;8.60;99.90
9699;DHT22;10089;47.876;8.346;2023-12-29T12:42:39;8.60;99.90
9699;DHT22;10089;47.876;8.346;2023-12-29T12:45:19;8.60;99.90
9699;DHT22;10089;47.876;8.346;2023-12-29T12:47:50;8.70;1.00
9699;DHT22;10089;47.876;8.346;2023-12-29T12:50:16;8.70;45.70
9699;DHT22;10089;47.876;8.346;2023-12-29T12:52:42;8.60;1.00
9699;DHT22;10089;47.876;8.346;2023-12-29T12:55:08;8.70;1.00
9699;DHT22;10089;47.876;8.346;2023-12-29T12:57:36;8.70;99.90
9699;DHT22;10089;47.876;8.346;2023-12-29T13:00:03;8.70;1.00
9699;DHT22;10089;47.876;8.346;2023-12-29T13:02:30;8.80;99.90
9699;DHT22;10089;47.876;8.346;2023-12-29T13:04:57;8.80;99.90
9699;DHT22;10089;47.876;8.346;2023-12-29T13:07:23;8.80;1.00
9699;DHT22;10089;47.876;8.346;2023-12-29T13:09:50;8.80;1.00
9699;DHT22;10089;47.876;8.346;2023-12-29T13:12:17;8.90;1.00
9699;DHT22;10089;47.876;8.346;2023-12-29T13:14:44;9.00;1.00
9699;DHT22;10089;47.876;8.346;2023-12-29T13:17:12;9.00;1.00
9699;DHT22;10089;47.876;8.346;2023-12-29T13:19:39;9.00;99.90
9699;DHT22;10089;47.876;8.346;2023-12-29T13:22:09;9.00;1.00
9699;DHT22;10089;47.876;8.346;2023-12-29T13:24:36;9.00;27.70
9699;DHT22;10089;47.876;8.346;2023-12-29T13:27:07;8.90;99.90
9699;DHT22;10089;47.876;8.346;2023-12-29T13:29:37;9.00;1.00
9699;DHT22;10089;47.876;8.346;2023-12-29T13:32:15;8.60;99.90
9699;DHT22;10089;47.876;8.346;2023-12-29T13:34:55;8.80;1.00
9699;DHT22;10089;47.876;8.346;2023-12-29T13:37:46;8.70;1.00
9699;DHT22;10089;47.876;8.346;2023-12-29T13:40:38;8.70;1.00
9699;DHT22;10089;47.876;8.346;2023-12-29T13:43:08;8.60;99.90
9699;DHT22;10089;47.876;8.346;2023-12-29T13:45:34;8.60;99.90
9699;DHT22;10089;47.876;8.346;2023-12-29T13:48:01;8.60;1.00
9699;DHT22;10089;47.876;8.346;2023-12-29T13:50:28;8.50;1.00
9699;DHT22;10089;47.876;8.346;2023-12-29T13:52:55;8.50;1.00
9699;DHT22;10089;47.876;8.346;2023-12-29T13:55:21;8.50;1.00
9699;DHT22;10089;47.876;8.346;2023-12-29T13:57:48;8.40;1.00
9699;DHT22;10089;47.876;8.346;2023-12-29T14:05:31;8.50;99.90
9699;DHT22;10089;47.876;8.346;2023-12-29T14:10:31;8.50;1.00
9699;DHT22;10089;47.876;8.346;2023-12-29T14:13:23;8.50;1.00
9699;DHT22;10089;47.876;8.346;2023-12-29T14:15:49;8.60;99.90
9699;DHT22;10089;47.876;8.346;2023-12-29T14:21:29;8.50;1.00
9699;DHT22;10089;47.876;8.346;2023-12-29T14:24:12;8.50;1.00
9699;DHT22;10089;47.876;8.346;2023-12-29T14:26:39;8.20;1.00
9699;DHT22;10089;47.876;8.346;2023-12-29T14:29:11;8.40;1.00
9699;DHT22;10089;47.876;8.346;2023-12-29T14:31:42;8.40;1.00
9699;DHT22;10089;47.876;8.346;2023-12-29T14:34:08;8.30;1.00
9699;DHT22;10089;47.876;8.346;2023-12-29T14:36:34;8.40;1.00
9699;DHT22;10089;47.876;8.346;2023-12-29T14:39:01;8.40;1.00
9699;DHT22;10089;47.876;8.346;2023-12-29T14:41:27;8.50;1.00
9699;DHT22;10089;47.876;8.346;2023-12-29T14:43:53;8.40;1.00
9699;DHT22;10089;47.876;8.346;2023-12-29T14:46:19;8.40;1.00
9699;DHT22;10089;47.876;8.346;2023-12-29T14:48:45;8.30;1.00
9699;DHT22;10089;47.876;8.346;2023-12-29T14:51:10;8.30;1.00
9699;DHT22;10089;47.876;8.346;2023-12-29T14:53:37;8.20;1.00
9699;DHT22;10089;47.876;8.346;2023-12-29T14:56:02;8.30;1.00
9699;DHT22;10089;47.876;8.346;2023-12-29T14:58:28;8.30;1.00
9699;DHT22;10089;47.876;8.346;2023-12-29T15:00:54;8.30;1.00
9699;DHT22;10089;47.876;8.346;2023-12-29T15:03:20;8.30;1.00
9699;DHT22;10089;47.876;8.346;2023-12-29T15:05:46;8.30;1.00
9699;DHT22;10089;47.876;8.346;2023-12-29T15:08:13;8.40;1.00
9699;DHT22;10089;47.876;8.346;2023-12-29T15:10:38;8.30;1.00
9699;DHT22;10089;47.876;8.346;2023-12-29T15:13:04;8.30;1.00
9699;DHT22;10089;47.876;8.346;2023-12-29T15:15:32;8.40;1.00
9699;DHT22;10089;47.876;8.346;2023-12-29T15:17:58;8.30;1.00
9699;DHT22;10089;47.876;8.346;2023-12-29T15:20:24;8.30;1.00
9699;DHT22;10089;47.876;8.346;2023-12-29T15:22:49;8.30;1.00
9699;DHT22;10089;47.876;8.346;2023-12-29T15:25:15;8.30;1.00
9699;DHT22;10089;47.876;8.346;2023-12-29T15:27:41;8.30;1.00
9699;DHT22;10089;47.876;8.346;2023-12-29T15:30:08;8.30;1.00
9699;DHT22;10089;47.876;8.346;2023-12-29T15:32:33;8.20;1.00
9699;DHT22;10089;47.876;8.346;2023-12-29T15:34:59;8.20;1.00
9699;DHT22;10089;47.876;8.346;2023-12-29T15:37:25;8.20;1.00
9699;DHT22;10089;47.876;8.346;2023-12-29T15:39:50;8.20;1.00
9699;DHT22;10089;47.876;8.346;2023-12-29T15:42:16;8.10;1.00
9699;DHT22;10089;47.876;8.346;2023-12-29T15:44:42;8.20;1.00
9699;DHT22;10089;47.876;8.346;2023-12-29T15:47:07;8.10;1.00
9699;DHT22;10089;47.876;8.346;2023-12-29T15:49:33;8.10;1.00
9699;DHT22;10089;47.876;8.346;2023-12-29T15:51:58;8.20;1.00
9699;DHT22;10089;47.876;8.346;2023-12-29T15:54:24;8.10;1.00
9699;DHT22;10089;47.876;8.346;2023-12-29T15:56:50;8.10;1.00
9699;DHT22;10089;47.876;8.346;2023-12-29T15:59:15;8.10;27.10
9699;DHT22;10089;47.876;8.346;2023-12-29T16:01:41;8.10;1.00
9699;DHT22;10089;47.876;8.346;2023-12-29T16:04:06;8.10;99.30
9699;DHT22;10089;47.876;8.346;2023-12-29T16:06:32;8.10;99.90
9699;DHT22;10089;47.876;8.346;2023-12-29T16:08:57;8.10;99.90
9699;DHT22;10089;47.876;8.346;2023-12-29T16:11:24;8.10;99.90
9699;DHT22;10089;47.876;8.346;2023-12-29T16:13:51;8.00;99.90
9699;DHT22;10089;47.876;8.346;2023-12-29T16:16:18;8.00;99.90
9699;DHT22;10089;47.876;8.346;2023-12-29T16:18:44;8.10;99.90
9699;DHT22;10089;47.876;8.346;2023-12-29T16:21:13;8.00;99.90
9699;DHT22;10089;47.876;8.346;2023-12-29T16:23:39;8.00;99.90
9699;DHT22;10089;47.876;8.346;2023-12-29T16:26:09;8.00;99.90
9699;DHT22;10089;47.876;8.346;2023-12-29T16:28:36;7.90;99.90
9699;DHT22;10089;47.876;8.346;2023-12-29T16:31:05;7.80;58.10
9699;DHT22;10089;47.876;8.346;2023-12-29T16:33:33;7.90;99.90
9699;DHT22;10089;47.876;8.346;2023-12-29T16:36:09;8.00;99.90
9699;DHT22;10089;47.876;8.346;2023-12-29T16:38:36;8.00;99.90